Stourport-on-Severn, United Kingdom
Current Conditions -  °F | °C
As of 2:20 PM on Saturday 20 Dec 2014 (Local Time) from EGBB Reporting Station
Broken Clouds Broken Clouds  
Wind Chill: 43°   Ceiling: 4500
Heat Index: 48°   Visibility: 6mi
Dew Point: 36°   Wind: 14mph
Humidity: 62%   Direction: 300°WNW
Pressure: 30.3"   Gusts: NA
Location:  52.33°N, 2.28°W
Report Text: EGBB 201420Z 30012KT 260V330 9999 FEW032 BKN045 09/02 Q1026
Loading
Personal Weather Stations






























Interactive Weather Map New forecast layout! Learn more

10-Day Weather Forecast

Advertisements
Track Severe Weather on mobile